sensor_id;sensor_type;location;lat;lon;timestamp;temperature;humidity
1994;DHT22;998;49.906;10.908;2022-12-16T00:01:05;-2.10;99.90
1994;DHT22;998;49.906;10.908;2022-12-16T00:03:33;-2.00;99.90
1994;DHT22;998;49.906;10.908;2022-12-16T00:06:01;-2.00;99.90
1994;DHT22;998;49.906;10.908;2022-12-16T00:08:32;-2.00;99.90
1994;DHT22;998;49.906;10.908;2022-12-16T00:11:00;-2.00;99.90
1994;DHT22;998;49.906;10.908;2022-12-16T00:13:29;-2.00;99.90
1994;DHT22;998;49.906;10.908;2022-12-16T00:15:57;-2.00;99.90
1994;DHT22;998;49.906;10.908;2022-12-16T00:18:26;-1.90;99.90
1994;DHT22;998;49.906;10.908;2022-12-16T00:20:54;-1.90;99.90
1994;DHT22;998;49.906;10.908;2022-12-16T00:23:21;-2.00;99.90
1994;DHT22;998;49.906;10.908;2022-12-16T00:25:49;-2.00;99.90
1994;DHT22;998;49.906;10.908;2022-12-16T00:28:16;-1.90;99.90
1994;DHT22;998;49.906;10.908;2022-12-16T00:30:48;-1.90;99.90
1994;DHT22;998;49.906;10.908;2022-12-16T00:33:17;-1.90;99.90
1994;DHT22;998;49.906;10.908;2022-12-16T00:35:46;-1.80;99.90
1994;DHT22;998;49.906;10.908;2022-12-16T00:38:14;-1.80;99.90
1994;DHT22;998;49.906;10.908;2022-12-16T00:40:42;-1.90;99.90
1994;DHT22;998;49.906;10.908;2022-12-16T00:43:10;-1.80;99.90
1994;DHT22;998;49.906;10.908;2022-12-16T00:45:38;-1.80;99.90
1994;DHT22;998;49.906;10.908;2022-12-16T00:48:06;-1.80;99.90
1994;DHT22;998;49.906;10.908;2022-12-16T00:50:34;-1.80;99.90
1994;DHT22;998;49.906;10.908;2022-12-16T00:53:03;-1.80;99.90
1994;DHT22;998;49.906;10.908;2022-12-16T00:55:31;-1.80;99.90
1994;DHT22;998;49.906;10.908;2022-12-16T00:57:58;-1.70;99.90
1994;DHT22;998;49.906;10.908;2022-12-16T01:00:26;-1.70;99.90
1994;DHT22;998;49.906;10.908;2022-12-16T01:02:53;-1.70;99.90
1994;DHT22;998;49.906;10.908;2022-12-16T01:05:22;-1.70;99.90
1994;DHT22;998;49.906;10.908;2022-12-16T01:07:51;-1.70;99.90
1994;DHT22;998;49.906;10.908;2022-12-16T01:10:21;-1.70;99.90
1994;DHT22;998;49.906;10.908;2022-12-16T01:12:49;-1.70;99.90
1994;DHT22;998;49.906;10.908;2022-12-16T01:15:17;-1.70;99.90
1994;DHT22;998;49.906;10.908;2022-12-16T01:17:45;-1.70;99.90
1994;DHT22;998;49.906;10.908;2022-12-16T01:20:13;-1.60;99.90
1994;DHT22;998;49.906;10.908;2022-12-16T01:22:41;-1.60;99.90
1994;DHT22;998;49.906;10.908;2022-12-16T01:25:10;-1.60;99.90
1994;DHT22;998;49.906;10.908;2022-12-16T01:27:40;-1.60;99.90
1994;DHT22;998;49.906;10.908;2022-12-16T01:30:09;-1.60;99.90
1994;DHT22;998;49.906;10.908;2022-12-16T01:32:37;-1.60;99.90
1994;DHT22;998;49.906;10.908;2022-12-16T01:35:05;-1.60;99.90
1994;DHT22;998;49.906;10.908;2022-12-16T01:37:32;-1.60;99.90
1994;DHT22;998;49.906;10.908;2022-12-16T01:40:00;-1.50;99.90
1994;DHT22;998;49.906;10.908;2022-12-16T01:42:28;-1.50;99.90
1994;DHT22;998;49.906;10.908;2022-12-16T01:45:32;-1.50;99.90
1994;DHT22;998;49.906;10.908;2022-12-16T01:48:03;-1.50;99.90
1994;DHT22;998;49.906;10.908;2022-12-16T01:50:33;-1.50;99.90
1994;DHT22;998;49.906;10.908;2022-12-16T01:53:03;-1.50;99.90
1994;DHT22;998;49.906;10.908;2022-12-16T01:55:35;-1.40;99.90
1994;DHT22;998;49.906;10.908;2022-12-16T01:58:07;-1.50;99.90
1994;DHT22;998;49.906;10.908;2022-12-16T02:00:38;-1.40;99.90
1994;DHT22;998;49.906;10.908;2022-12-16T02:03:06;-1.40;99.90
1994;DHT22;998;49.906;10.908;2022-12-16T02:05:37;-1.40;99.90
1994;DHT22;998;49.906;10.908;2022-12-16T02:08:10;-1.40;99.90
1994;DHT22;998;49.906;10.908;2022-12-16T02:10:51;-1.50;99.90
1994;DHT22;998;49.906;10.908;2022-12-16T02:13:24;-1.50;99.90
1994;DHT22;998;49.906;10.908;2022-12-16T02:15:59;-1.40;99.90
1994;DHT22;998;49.906;10.908;2022-12-16T02:18:40;-1.40;99.90
1994;DHT22;998;49.906;10.908;2022-12-16T02:21:32;-1.40;99.90
1994;DHT22;998;49.906;10.908;2022-12-16T02:30:26;-1.40;99.90
1994;DHT22;998;49.906;10.908;2022-12-16T02:33:03;-1.40;99.90
1994;DHT22;998;49.906;10.908;2022-12-16T02:35:38;-1.40;99.90
1994;DHT22;998;49.906;10.908;2022-12-16T02:38:13;-1.40;99.90
1994;DHT22;998;49.906;10.908;2022-12-16T02:40:51;-1.40;99.90
1994;DHT22;998;49.906;10.908;2022-12-16T02:43:31;-1.40;99.90
1994;DHT22;998;49.906;10.908;2022-12-16T02:46:03;-1.40;99.90
1994;DHT22;998;49.906;10.908;2022-12-16T02:48:32;-1.40;99.90
1994;DHT22;998;49.906;10.908;2022-12-16T02:50:59;-1.40;99.90
1994;DHT22;998;49.906;10.908;2022-12-16T02:53:29;-1.40;99.90
1994;DHT22;998;49.906;10.908;2022-12-16T02:56:02;-1.50;99.90
1994;DHT22;998;49.906;10.908;2022-12-16T02:58:34;-1.50;99.90
1994;DHT22;998;49.906;10.908;2022-12-16T03:01:10;-1.50;99.90
1994;DHT22;998;49.906;10.908;2022-12-16T03:03:44;-1.50;99.90
1994;DHT22;998;49.906;10.908;2022-12-16T03:06:13;-1.50;99.90
1994;DHT22;998;49.906;10.908;2022-12-16T03:08:46;-1.60;99.90
1994;DHT22;998;49.906;10.908;2022-12-16T03:11:15;-1.60;99.90
1994;DHT22;998;49.906;10.908;2022-12-16T03:13:47;-1.60;99.90
1994;DHT22;998;49.906;10.908;2022-12-16T03:16:19;-1.60;99.90
1994;DHT22;998;49.906;10.908;2022-12-16T03:18:51;-1.60;99.90
1994;DHT22;998;49.906;10.908;2022-12-16T03:21:22;-1.50;99.90
1994;DHT22;998;49.906;10.908;2022-12-16T03:23:53;-1.60;99.90
1994;DHT22;998;49.906;10.908;2022-12-16T03:26:24;-1.60;99.90
1994;DHT22;998;49.906;10.908;2022-12-16T03:28:57;-1.60;99.90
1994;DHT22;998;49.906;10.908;2022-12-16T03:31:33;-1.60;99.90
1994;DHT22;998;49.906;10.908;2022-12-16T03:34:08;-1.60;99.90
1994;DHT22;998;49.906;10.908;2022-12-16T03:36:37;-1.60;99.90
1994;DHT22;998;49.906;10.908;2022-12-16T03:39:06;-1.50;99.90
1994;DHT22;998;49.906;10.908;2022-12-16T03:41:35;-1.50;99.90
1994;DHT22;998;49.906;10.908;2022-12-16T03:44:03;-1.60;99.90
1994;DHT22;998;49.906;10.908;2022-12-16T03:46:32;-1.60;99.90
1994;DHT22;998;49.906;10.908;2022-12-16T03:48:59;-1.60;99.90
1994;DHT22;998;49.906;10.908;2022-12-16T03:51:26;-1.50;99.90
1994;DHT22;998;49.906;10.908;2022-12-16T03:53:54;-1.50;99.90
1994;DHT22;998;49.906;10.908;2022-12-16T03:56:21;-1.40;99.90
1994;DHT22;998;49.906;10.908;2022-12-16T03:58:49;-1.40;99.90
1994;DHT22;998;49.906;10.908;2022-12-16T04:01:16;-1.40;99.90
1994;DHT22;998;49.906;10.908;2022-12-16T04:03:45;-1.40;99.90
1994;DHT22;998;49.906;10.908;2022-12-16T04:06:13;-1.40;99.90
1994;DHT22;998;49.906;10.908;2022-12-16T04:08:43;-1.40;99.90
1994;DHT22;998;49.906;10.908;2022-12-16T04:11:11;-1.40;99.90
1994;DHT22;998;49.906;10.908;2022-12-16T04:13:55;-1.30;99.90
1994;DHT22;998;49.906;10.908;2022-12-16T04:16:40;-1.40;99.90
1994;DHT22;998;49.906;10.908;2022-12-16T04:19:30;-1.30;99.90
1994;DHT22;998;49.906;10.908;2022-12-16T04:22:18;-1.30;99.90
1994;DHT22;998;49.906;10.908;2022-12-16T04:25:07;-1.30;99.90
1994;DHT22;998;49.906;10.908;2022-12-16T04:27:35;-1.30;99.90
1994;DHT22;998;49.906;10.908;2022-12-16T04:30:03;-1.30;99.90
1994;DHT22;998;49.906;10.908;2022-12-16T04:32:47;-1.20;99.90
1994;DHT22;998;49.906;10.908;2022-12-16T04:35:33;-1.20;99.90
1994;DHT22;998;49.906;10.908;2022-12-16T04:38:18;-1.30;99.90
1994;DHT22;998;49.906;10.908;2022-12-16T04:41:03;-1.30;99.90
1994;DHT22;998;49.906;10.908;2022-12-16T04:43:47;-1.20;99.90
1994;DHT22;998;49.906;10.908;2022-12-16T04:46:32;-1.30;99.90
1994;DHT22;998;49.906;10.908;2022-12-16T04:49:16;-1.30;99.90
1994;DHT22;998;49.906;10.908;2022-12-16T04:52:02;-1.30;99.90
1994;DHT22;998;49.906;10.908;2022-12-16T04:54:47;-1.30;99.90
1994;DHT22;998;49.906;10.908;2022-12-16T04:57:40;-1.30;99.90
1994;DHT22;998;49.906;10.908;2022-12-16T05:00:27;-1.30;99.90
1994;DHT22;998;49.906;10.908;2022-12-16T05:03:11;-1.30;99.90
1994;DHT22;998;49.906;10.908;2022-12-16T05:05:56;-1.30;99.90
1994;DHT22;998;49.906;10.908;2022-12-16T05:08:42;-1.30;99.90
1994;DHT22;998;49.906;10.908;2022-12-16T05:11:27;-1.30;99.90
1994;DHT22;998;49.906;10.908;2022-12-16T05:14:11;-1.30;99.90
1994;DHT22;998;49.906;10.908;2022-12-16T05:16:56;-1.40;99.90
1994;DHT22;998;49.906;10.908;2022-12-16T05:19:40;-1.30;99.90
1994;DHT22;998;49.906;10.908;2022-12-16T05:22:25;-1.30;99.90
1994;DHT22;998;49.906;10.908;2022-12-16T05:25:12;-1.30;99.90
1994;DHT22;998;49.906;10.908;2022-12-16T05:27:56;-1.30;99.90
1994;DHT22;998;49.906;10.908;2022-12-16T05:30:41;-1.30;99.90
1994;DHT22;998;49.906;10.908;2022-12-16T05:33:26;-1.30;99.90
1994;DHT22;998;49.906;10.908;2022-12-16T05:36:10;-1.30;99.90
1994;DHT22;998;49.906;10.908;2022-12-16T05:38:55;-1.30;99.90
1994;DHT22;998;49.906;10.908;2022-12-16T05:41:41;-1.30;99.90
1994;DHT22;998;49.906;10.908;2022-12-16T05:44:26;-1.30;99.90
1994;DHT22;998;49.906;10.908;2022-12-16T05:47:10;-1.30;99.90
1994;DHT22;998;49.906;10.908;2022-12-16T05:49:55;-1.40;99.90
1994;DHT22;998;49.906;10.908;2022-12-16T05:52:40;-1.40;99.90
1994;DHT22;998;49.906;10.908;2022-12-16T05:55:24;-1.40;99.90
1994;DHT22;998;49.906;10.908;2022-12-16T05:58:10;-1.40;99.90
1994;DHT22;998;49.906;10.908;2022-12-16T06:00:55;-1.50;99.90
1994;DHT22;998;49.906;10.908;2022-12-16T06:03:39;-1.50;99.90
1994;DHT22;998;49.906;10.908;2022-12-16T06:06:24;-1.50;99.90
1994;DHT22;998;49.906;10.908;2022-12-16T06:09:20;-1.50;99.90
1994;DHT22;998;49.906;10.908;2022-12-16T06:12:05;-1.40;99.90
1994;DHT22;998;49.906;10.908;2022-12-16T06:14:59;-1.40;99.90
1994;DHT22;998;49.906;10.908;2022-12-16T06:17:47;-1.40;99.90
1994;DHT22;998;49.906;10.908;2022-12-16T06:20:32;-1.40;99.90
1994;DHT22;998;49.906;10.908;2022-12-16T06:23:17;-1.40;99.90
1994;DHT22;998;49.906;10.908;2022-12-16T06:26:02;-1.50;99.90
1994;DHT22;998;49.906;10.908;2022-12-16T06:28:47;-1.50;99.90
1994;DHT22;998;49.906;10.908;2022-12-16T06:31:33;-1.50;99.90
1994;DHT22;998;49.906;10.908;2022-12-16T06:34:17;-1.50;99.90
1994;DHT22;998;49.906;10.908;2022-12-16T06:37:01;-1.40;99.90
1994;DHT22;998;49.906;10.908;2022-12-16T06:39:46;-1.50;99.90
1994;DHT22;998;49.906;10.908;2022-12-16T06:42:31;-1.50;99.90
1994;DHT22;998;49.906;10.908;2022-12-16T06:45:15;-1.50;99.90
1994;DHT22;998;49.906;10.908;2022-12-16T06:48:01;-1.50;99.90
1994;DHT22;998;49.906;10.908;2022-12-16T06:50:58;-1.50;99.90
1994;DHT22;998;49.906;10.908;2022-12-16T06:53:42;-1.50;99.90
1994;DHT22;998;49.906;10.908;2022-12-16T06:56:27;-1.50;99.90
1994;DHT22;998;49.906;10.908;2022-12-16T06:59:12;-1.50;99.90
1994;DHT22;998;49.906;10.908;2022-12-16T07:01:56;-1.50;99.90
1994;DHT22;998;49.906;10.908;2022-12-16T07:04:42;-1.60;99.90
1994;DHT22;998;49.906;10.908;2022-12-16T07:07:27;-1.60;99.90
1994;DHT22;998;49.906;10.908;2022-12-16T07:10:12;-1.60;99.90
1994;DHT22;998;49.906;10.908;2022-12-16T07:12:57;-1.60;99.90
1994;DHT22;998;49.906;10.908;2022-12-16T07:15:43;-1.60;99.90
1994;DHT22;998;49.906;10.908;2022-12-16T07:18:28;-1.70;99.90
1994;DHT22;998;49.906;10.908;2022-12-16T07:21:14;-1.70;99.90
1994;DHT22;998;49.906;10.908;2022-12-16T07:23:59;-1.70;99.90
1994;DHT22;998;49.906;10.908;2022-12-16T07:26:44;-1.70;99.90
1994;DHT22;998;49.906;10.908;2022-12-16T07:29:29;-1.80;99.90
1994;DHT22;998;49.906;10.908;2022-12-16T07:32:13;-1.80;99.90
1994;DHT22;998;49.906;10.908;2022-12-16T07:34:58;-1.80;99.90
1994;DHT22;998;49.906;10.908;2022-12-16T07:37:44;-1.70;99.90
1994;DHT22;998;49.906;10.908;2022-12-16T07:40:29;-1.70;99.90
1994;DHT22;998;49.906;10.908;2022-12-16T07:43:13;-1.70;99.90
1994;DHT22;998;49.906;10.908;2022-12-16T07:45:58;-1.70;99.90
1994;DHT22;998;49.906;10.908;2022-12-16T07:48:42;-1.70;99.90
1994;DHT22;998;49.906;10.908;2022-12-16T07:51:27;-1.70;99.90
1994;DHT22;998;49.906;10.908;2022-12-16T07:54:13;-1.70;99.90
1994;DHT22;998;49.906;10.908;2022-12-16T07:56:57;-1.70;99.90
1994;DHT22;998;49.906;10.908;2022-12-16T07:59:42;-1.60;99.90
1994;DHT22;998;49.906;10.908;2022-12-16T08:02:27;-1.60;99.90
1994;DHT22;998;49.906;10.908;2022-12-16T08:05:11;-1.60;99.90
1994;DHT22;998;49.906;10.908;2022-12-16T08:07:56;-1.60;99.90
1994;DHT22;998;49.906;10.908;2022-12-16T08:10:42;-1.60;99.90
1994;DHT22;998;49.906;10.908;2022-12-16T08:13:29;-1.50;99.90
1994;DHT22;998;49.906;10.908;2022-12-16T08:16:13;-1.60;99.90
1994;DHT22;998;49.906;10.908;2022-12-16T08:18:58;-1.60;99.90
1994;DHT22;998;49.906;10.908;2022-12-16T08:21:43;-1.60;99.90
1994;DHT22;998;49.906;10.908;2022-12-16T08:24:28;-1.60;99.90
1994;DHT22;998;49.906;10.908;2022-12-16T08:27:14;-1.50;99.90
1994;DHT22;998;49.906;10.908;2022-12-16T08:29:58;-1.60;99.90
1994;DHT22;998;49.906;10.908;2022-12-16T08:32:43;-1.50;99.90
1994;DHT22;998;49.906;10.908;2022-12-16T08:35:27;-1.50;99.90
1994;DHT22;998;49.906;10.908;2022-12-16T08:38:12;-1.50;99.90
1994;DHT22;998;49.906;10.908;2022-12-16T08:40:57;-1.50;99.90
1994;DHT22;998;49.906;10.908;2022-12-16T08:43:42;-1.60;99.90
1994;DHT22;998;49.906;10.908;2022-12-16T08:46:27;-1.50;99.90
1994;DHT22;998;49.906;10.908;2022-12-16T08:49:12;-1.50;99.90
1994;DHT22;998;49.906;10.908;2022-12-16T08:52:11;-1.50;99.90
1994;DHT22;998;49.906;10.908;2022-12-16T08:54:56;-1.50;99.90
1994;DHT22;998;49.906;10.908;2022-12-16T08:57:40;-1.50;99.90
1994;DHT22;998;49.906;10.908;2022-12-16T09:00:26;-1.50;99.90
1994;DHT22;998;49.906;10.908;2022-12-16T09:03:11;-1.40;99.90
1994;DHT22;998;49.906;10.908;2022-12-16T09:06:07;-1.40;99.90
1994;DHT22;998;49.906;10.908;2022-12-16T09:08:52;-1.50;99.90
1994;DHT22;998;49.906;10.908;2022-12-16T09:11:36;-1.40;99.90
1994;DHT22;998;49.906;10.908;2022-12-16T09:14:21;-1.50;99.90
1994;DHT22;998;49.906;10.908;2022-12-16T09:17:07;-1.50;99.90
1994;DHT22;998;49.906;10.908;2022-12-16T09:19:52;-1.50;99.90
1994;DHT22;998;49.906;10.908;2022-12-16T09:22:37;-1.40;99.90
1994;DHT22;998;49.906;10.908;2022-12-16T09:25:22;-1.40;99.90
1994;DHT22;998;49.906;10.908;2022-12-16T09:28:06;-1.50;99.90
1994;DHT22;998;49.906;10.908;2022-12-16T09:30:51;-1.50;99.90
1994;DHT22;998;49.906;10.908;2022-12-16T09:33:37;-1.60;99.90
1994;DHT22;998;49.906;10.908;2022-12-16T09:36:21;-1.50;99.90
1994;DHT22;998;49.906;10.908;2022-12-16T09:39:06;-1.40;99.90
1994;DHT22;998;49.906;10.908;2022-12-16T09:41:59;-1.40;99.90
1994;DHT22;998;49.906;10.908;2022-12-16T09:44:53;-1.40;99.90
1994;DHT22;998;49.906;10.908;2022-12-16T09:47:46;-1.40;99.90
1994;DHT22;998;49.906;10.908;2022-12-16T09:50:37;-1.40;99.90
1994;DHT22;998;49.906;10.908;2022-12-16T09:53:22;-1.40;99.90
1994;DHT22;998;49.906;10.908;2022-12-16T09:56:14;-1.40;99.90
1994;DHT22;998;49.906;10.908;2022-12-16T09:59:01;-1.40;99.90
1994;DHT22;998;49.906;10.908;2022-12-16T10:01:49;-1.40;99.90
1994;DHT22;998;49.906;10.908;2022-12-16T10:04:35;-1.40;99.90
1994;DHT22;998;49.906;10.908;2022-12-16T10:07:21;-1.40;99.90
1994;DHT22;998;49.906;10.908;2022-12-16T10:10:16;-1.40;99.90
1994;DHT22;998;49.906;10.908;2022-12-16T10:13:08;-1.30;99.90
1994;DHT22;998;49.906;10.908;2022-12-16T10:16:02;-1.40;99.90
1994;DHT22;998;49.906;10.908;2022-12-16T10:18:54;-1.30;99.90
1994;DHT22;998;49.906;10.908;2022-12-16T10:21:46;-1.30;99.90
1994;DHT22;998;49.906;10.908;2022-12-16T10:24:44;-1.30;99.90
1994;DHT22;998;49.906;10.908;2022-12-16T10:27:37;-1.20;99.90
1994;DHT22;998;49.906;10.908;2022-12-16T10:30:26;-1.20;99.90
1994;DHT22;998;49.906;10.908;2022-12-16T10:33:13;-1.20;99.90
1994;DHT22;998;49.906;10.908;2022-12-16T10:35:58;-1.20;99.90
1994;DHT22;998;49.906;10.908;2022-12-16T10:38:45;-1.20;99.90
1994;DHT22;998;49.906;10.908;2022-12-16T10:41:36;-1.10;99.90
1994;DHT22;998;49.906;10.908;2022-12-16T10:44:25;-1.20;99.90
1994;DHT22;998;49.906;10.908;2022-12-16T10:47:11;-1.10;99.90
1994;DHT22;998;49.906;10.908;2022-12-16T10:49:56;-1.10;99.90
1994;DHT22;998;49.906;10.908;2022-12-16T10:52:50;-1.10;99.90
1994;DHT22;998;49.906;10.908;2022-12-16T10:55:46;-1.00;99.90
1994;DHT22;998;49.906;10.908;2022-12-16T10:58:44;-0.90;99.90
1994;DHT22;998;49.906;10.908;2022-12-16T11:01:30;-1.00;99.90
1994;DHT22;998;49.906;10.908;2022-12-16T11:04:32;-1.00;99.90
1994;DHT22;998;49.906;10.908;2022-12-16T11:07:30;-1.00;99.90
1994;DHT22;998;49.906;10.908;2022-12-16T11:10:24;-1.00;99.90
1994;DHT22;998;49.906;10.908;2022-12-16T11:13:17;-1.00;99.90
1994;DHT22;998;49.906;10.908;2022-12-16T11:16:13;-1.00;99.90
1994;DHT22;998;49.906;10.908;2022-12-16T11:18:59;-1.00;99.90
1994;DHT22;998;49.906;10.908;2022-12-16T11:21:44;-1.00;99.90
1994;DHT22;998;49.906;10.908;2022-12-16T11:24:30;-1.00;99.90
1994;DHT22;998;49.906;10.908;2022-12-16T11:27:21;-1.00;99.90
1994;DHT22;998;49.906;10.908;2022-12-16T11:30:17;-0.90;99.90
1994;DHT22;998;49.906;10.908;2022-12-16T11:33:11;-0.90;99.90
1994;DHT22;998;49.906;10.908;2022-12-16T11:36:08;-0.90;99.90
1994;DHT22;998;49.906;10.908;2022-12-16T11:38:54;-0.90;99.90
1994;DHT22;998;49.906;10.908;2022-12-16T11:41:40;-0.90;99.90
1994;DHT22;998;49.906;10.908;2022-12-16T11:44:32;-0.90;99.90
1994;DHT22;998;49.906;10.908;2022-12-16T11:47:22;-0.80;99.90
1994;DHT22;998;49.906;10.908;2022-12-16T11:50:15;-0.80;99.90
1994;DHT22;998;49.906;10.908;2022-12-16T11:53:17;-0.80;99.90
1994;DHT22;998;49.906;10.908;2022-12-16T11:56:12;-0.80;99.90
1994;DHT22;998;49.906;10.908;2022-12-16T11:59:02;-0.80;99.90
1994;DHT22;998;49.906;10.908;2022-12-16T12:01:52;-0.70;99.90
1994;DHT22;998;49.906;10.908;2022-12-16T12:04:39;-0.80;99.90
1994;DHT22;998;49.906;10.908;2022-12-16T12:07:32;-0.70;99.90
1994;DHT22;998;49.906;10.908;2022-12-16T12:10:48;-0.70;99.90
1994;DHT22;998;49.906;10.908;2022-12-16T12:13:57;-0.70;99.90
1994;DHT22;998;49.906;10.908;2022-12-16T12:16:55;-0.60;99.90
1994;DHT22;998;49.906;10.908;2022-12-16T12:19:51;-0.60;99.90
1994;DHT22;998;49.906;10.908;2022-12-16T12:22:40;-0.60;99.90
1994;DHT22;998;49.906;10.908;2022-12-16T12:25:31;-0.60;99.90
1994;DHT22;998;49.906;10.908;2022-12-16T12:28:31;-0.60;99.90
1994;DHT22;998;49.906;10.908;2022-12-16T12:31:26;-0.60;99.90
1994;DHT22;998;49.906;10.908;2022-12-16T12:34:20;-0.50;99.90
1994;DHT22;998;49.906;10.908;2022-12-16T12:37:09;-0.50;99.90
1994;DHT22;998;49.906;10.908;2022-12-16T12:40:08;-0.50;99.90
1994;DHT22;998;49.906;10.908;2022-12-16T12:43:16;-0.50;99.90
1994;DHT22;998;49.906;10.908;2022-12-16T12:46:05;-0.50;99.90
1994;DHT22;998;49.906;10.908;2022-12-16T12:48:58;-0.50;99.90
1994;DHT22;998;49.906;10.908;2022-12-16T12:51:50;-0.50;99.90
1994;DHT22;998;49.906;10.908;2022-12-16T12:54:42;-0.40;99.90
1994;DHT22;998;49.906;10.908;2022-12-16T12:57:29;-0.40;99.90
1994;DHT22;998;49.906;10.908;2022-12-16T13:00:18;-0.30;99.90
1994;DHT22;998;49.906;10.908;2022-12-16T13:03:08;-0.30;99.90
1994;DHT22;998;49.906;10.908;2022-12-16T13:06:12;-0.30;99.90
1994;DHT22;998;49.906;10.908;2022-12-16T13:08:57;-0.20;99.90
1994;DHT22;998;49.906;10.908;2022-12-16T13:12:29;-0.20;99.90
1994;DHT22;998;49.906;10.908;2022-12-16T13:15:19;-0.20;99.90
1994;DHT22;998;49.906;10.908;2022-12-16T13:18:26;-0.10;99.90
1994;DHT22;998;49.906;10.908;2022-12-16T13:21:42;-0.10;99.90
1994;DHT22;998;49.906;10.908;2022-12-16T13:24:36;-0.10;99.90
1994;DHT22;998;49.906;10.908;2022-12-16T13:27:22;-0.10;99.90
1994;DHT22;998;49.906;10.908;2022-12-16T13:30:21;-0.10;99.90
1994;DHT22;998;49.906;10.908;2022-12-16T13:33:20;-0.10;99.90
1994;DHT22;998;49.906;10.908;2022-12-16T13:36:05;0.00;99.90
1994;DHT22;998;49.906;10.908;2022-12-16T13:38:52;0.00;99.90
1994;DHT22;998;49.906;10.908;2022-12-16T13:41:49;0.00;99.90
1994;DHT22;998;49.906;10.908;2022-12-16T13:44:56;0.10;99.90
1994;DHT22;998;49.906;10.908;2022-12-16T13:48:03;0.10;99.90
1994;DHT22;998;49.906;10.908;2022-12-16T13:50:50;0.10;99.90
1994;DHT22;998;49.906;10.908;2022-12-16T13:53:41;0.00;99.90
1994;DHT22;998;49.906;10.908;2022-12-16T13:56:32;0.00;99.90
1994;DHT22;998;49.906;10.908;2022-12-16T13:59:20;0.00;99.90
1994;DHT22;998;49.906;10.908;2022-12-16T14:02:24;-0.10;99.90
1994;DHT22;998;49.906;10.908;2022-12-16T14:05:17;0.00;99.90
1994;DHT22;998;49.906;10.908;2022-12-16T14:08:04;0.20;99.90
1994;DHT22;998;49.906;10.908;2022-12-16T14:10:56;0.30;99.90
1994;DHT22;998;49.906;10.908;2022-12-16T14:13:45;0.40;99.90
1994;DHT22;998;49.906;10.908;2022-12-16T14:16:39;0.50;99.90
1994;DHT22;998;49.906;10.908;2022-12-16T14:19:32;0.60;99.90
1994;DHT22;998;49.906;10.908;2022-12-16T14:22:29;0.60;99.90
1994;DHT22;998;49.906;10.908;2022-12-16T14:25:21;0.60;99.90
1994;DHT22;998;49.906;10.908;2022-12-16T14:28:11;0.40;99.90
1994;DHT22;998;49.906;10.908;2022-12-16T14:31:05;0.40;99.90
1994;DHT22;998;49.906;10.908;2022-12-16T14:33:53;0.40;99.90
1994;DHT22;998;49.906;10.908;2022-12-16T14:36:38;0.30;99.90
1994;DHT22;998;49.906;10.908;2022-12-16T14:39:28;0.30;99.90
1994;DHT22;998;49.906;10.908;2022-12-16T14:42:19;0.30;99.90
1994;DHT22;998;49.906;10.908;2022-12-16T14:45:21;0.20;99.90
1994;DHT22;998;49.906;10.908;2022-12-16T14:48:24;0.20;99.90
1994;DHT22;998;49.906;10.908;2022-12-16T14:51:25;0.20;99.90
1994;DHT22;998;49.906;10.908;2022-12-16T14:54:23;0.10;99.90
1994;DHT22;998;49.906;10.908;2022-12-16T14:57:14;0.10;99.90
1994;DHT22;998;49.906;10.908;2022-12-16T15:00:12;0.00;99.90
1994;DHT22;998;49.906;10.908;2022-12-16T15:03:01;0.00;99.90
1994;DHT22;998;49.906;10.908;2022-12-16T15:05:48;0.00;99.90
1994;DHT22;998;49.906;10.908;2022-12-16T15:08:36;0.00;99.90
1994;DHT22;998;49.906;10.908;2022-12-16T15:11:25;0.00;99.90
1994;DHT22;998;49.906;10.908;2022-12-16T15:14:11;-0.10;99.90
1994;DHT22;998;49.906;10.908;2022-12-16T15:17:00;-0.10;99.90
1994;DHT22;998;49.906;10.908;2022-12-16T15:19:48;-0.20;99.90
1994;DHT22;998;49.906;10.908;2022-12-16T15:22:34;-0.20;99.90
1994;DHT22;998;49.906;10.908;2022-12-16T15:25:20;-0.20;99.90
1994;DHT22;998;49.906;10.908;2022-12-16T15:28:22;-0.10;99.90
1994;DHT22;998;49.906;10.908;2022-12-16T15:31:13;-0.20;99.90
1994;DHT22;998;49.906;10.908;2022-12-16T15:34:16;-0.20;99.90
1994;DHT22;998;49.906;10.908;2022-12-16T15:37:01;-0.30;99.90
1994;DHT22;998;49.906;10.908;2022-12-16T15:39:46;-0.30;99.90
1994;DHT22;998;49.906;10.908;2022-12-16T15:42:32;-0.30;99.90
1994;DHT22;998;49.906;10.908;2022-12-16T15:45:22;-0.40;99.90
1994;DHT22;998;49.906;10.908;2022-12-16T15:48:11;-0.40;99.90
1994;DHT22;998;49.906;10.908;2022-12-16T15:50:56;-0.50;99.90
1994;DHT22;998;49.906;10.908;2022-12-16T15:53:41;-0.50;99.90
1994;DHT22;998;49.906;10.908;2022-12-16T15:56:39;-0.60;99.90
1994;DHT22;998;49.906;10.908;2022-12-16T15:59:26;-0.70;99.90
1994;DHT22;998;49.906;10.908;2022-12-16T16:02:16;-0.80;99.90
1994;DHT22;998;49.906;10.908;2022-12-16T16:05:06;-0.70;99.90
1994;DHT22;998;49.906;10.908;2022-12-16T16:07:53;-0.70;99.90
1994;DHT22;998;49.906;10.908;2022-12-16T16:10:41;-0.70;99.90
1994;DHT22;998;49.906;10.908;2022-12-16T16:13:26;-0.70;99.90
1994;DHT22;998;49.906;10.908;2022-12-16T16:16:11;-0.80;99.90
1994;DHT22;998;49.906;10.908;2022-12-16T16:18:57;-0.80;99.90
1994;DHT22;998;49.906;10.908;2022-12-16T16:21:43;-0.90;99.90
1994;DHT22;998;49.906;10.908;2022-12-16T16:24:28;-0.90;99.90
1994;DHT22;998;49.906;10.908;2022-12-16T16:27:13;-1.00;99.90
1994;DHT22;998;49.906;10.908;2022-12-16T16:29:59;-1.10;99.90
1994;DHT22;998;49.906;10.908;2022-12-16T16:32:43;-1.10;99.90
1994;DHT22;998;49.906;10.908;2022-12-16T16:35:31;-1.10;99.90
1994;DHT22;998;49.906;10.908;2022-12-16T16:38:16;-1.20;99.90
1994;DHT22;998;49.906;10.908;2022-12-16T16:41:01;-1.20;99.90
1994;DHT22;998;49.906;10.908;2022-12-16T16:43:46;-1.20;99.90
1994;DHT22;998;49.906;10.908;2022-12-16T16:46:33;-1.20;99.90
1994;DHT22;998;49.906;10.908;2022-12-16T16:49:22;-1.20;99.90
1994;DHT22;998;49.906;10.908;2022-12-16T16:52:13;-1.30;99.90
1994;DHT22;998;49.906;10.908;2022-12-16T16:54:58;-1.20;99.90
1994;DHT22;998;49.906;10.908;2022-12-16T16:57:43;-1.30;99.90
1994;DHT22;998;49.906;10.908;2022-12-16T17:00:28;-1.30;99.90
1994;DHT22;998;49.906;10.908;2022-12-16T17:03:13;-1.40;99.90
1994;DHT22;998;49.906;10.908;2022-12-16T17:05:57;-1.40;99.90
1994;DHT22;998;49.906;10.908;2022-12-16T17:08:43;-1.40;99.90
1994;DHT22;998;49.906;10.908;2022-12-16T17:11:29;-1.40;99.90
1994;DHT22;998;49.906;10.908;2022-12-16T17:14:15;-1.40;99.90
1994;DHT22;998;49.906;10.908;2022-12-16T17:17:00;-1.50;99.90
1994;DHT22;998;49.906;10.908;2022-12-16T17:19:45;-1.50;99.90
1994;DHT22;998;49.906;10.908;2022-12-16T17:22:30;-1.60;99.90
1994;DHT22;998;49.906;10.908;2022-12-16T17:25:17;-1.60;99.90
1994;DHT22;998;49.906;10.908;2022-12-16T17:28:02;-1.50;99.90
1994;DHT22;998;49.906;10.908;2022-12-16T17:30:47;-1.50;99.90
1994;DHT22;998;49.906;10.908;2022-12-16T17:33:32;-1.60;99.90
1994;DHT22;998;49.906;10.908;2022-12-16T17:36:17;-1.70;99.90
1994;DHT22;998;49.906;10.908;2022-12-16T17:39:02;-1.60;99.90
1994;DHT22;998;49.906;10.908;2022-12-16T17:41:48;-1.60;99.90
1994;DHT22;998;49.906;10.908;2022-12-16T17:44:33;-1.60;99.90
1994;DHT22;998;49.906;10.908;2022-12-16T17:47:17;-1.60;99.90
1994;DHT22;998;49.906;10.908;2022-12-16T17:50:03;-1.60;99.90
1994;DHT22;998;49.906;10.908;2022-12-16T17:52:52;-1.60;99.90
1994;DHT22;998;49.906;10.908;2022-12-16T17:55:37;-1.60;99.90
1994;DHT22;998;49.906;10.908;2022-12-16T17:58:28;-1.80;99.90